Time;durP1;ratioP1;P1;durP2;ratioP2;P2;SDS_P1;SDS_P2;PMS_P1;PMS_P2;Temp;Humidity;BMP_temperature;BMP_pressure;BME280_temperature;BME280_humidity;BME280_pressure;Samples;Min_cycle;Max_cycle;Signal;HPM_P1;HPM_P2
2024/02/16 00:01:01;;;;;;;2.88;2.20;;;14.40;82.80;;;;;;5050395;28;20037;-87
2024/02/16 00:03:28;;;;;;;3.22;2.10;;;14.40;82.90;;;;;;5031082;28;20025;-94
2024/02/16 00:05:54;;;;;;;2.50;1.95;;;14.40;82.90;;;;;;5018223;28;20048;-88
2024/02/16 00:08:21;;;;;;;2.50;2.10;;;14.40;82.90;;;;;;5046922;28;20018;-86
2024/02/16 00:11:06;;;;;;;3.47;2.10;;;14.40;82.90;;;;;;5038794;28;20025;-94
2024/02/16 00:13:33;;;;;;;4.85;1.92;;;14.40;82.90;;;;;;5047925;28;20036;-92
2024/02/16 00:15:58;;;;;;;2.42;2.22;;;14.40;82.90;;;;;;5050196;28;20039;-87
2024/02/16 00:18:26;;;;;;;3.40;2.20;;;14.40;82.90;;;;;;5037530;28;20480;-87
2024/02/16 00:20:51;;;;;;;2.80;2.13;;;14.40;82.90;;;;;;5040261;28;20542;-81
2024/02/16 00:23:19;;;;;;;2.83;2.10;;;14.30;82.90;;;;;;5051039;28;20435;-87
2024/02/16 00:25:45;;;;;;;2.92;2.15;;;14.30;82.90;;;;;;5054263;28;20031;-87
2024/02/16 00:28:11;;;;;;;2.30;2.10;;;14.30;82.80;;;;;;5038911;28;20056;-81
2024/02/16 00:30:37;;;;;;;3.10;2.38;;;14.30;82.90;;;;;;5055396;28;20066;-81
2024/02/16 00:33:03;;;;;;;3.22;2.13;;;14.30;82.90;;;;;;5030074;28;20041;-80
2024/02/16 00:35:33;;;;;;;3.10;2.10;;;14.30;82.90;;;;;;5056096;28;20126;-88
2024/02/16 00:38:04;;;;;;;2.97;2.20;;;14.30;82.90;;;;;;5046711;28;20148;-80
2024/02/16 00:40:30;;;;;;;3.10;2.20;;;14.30;82.90;;;;;;5029114;28;20444;-89
2024/02/16 00:42:56;;;;;;;2.28;2.08;;;14.20;82.80;;;;;;5035225;28;20036;-93
2024/02/16 00:45:22;;;;;;;2.80;2.03;;;14.20;82.80;;;;;;5024120;28;20496;-89
2024/02/16 00:47:48;;;;;;;2.30;2.10;;;14.20;82.80;;;;;;5052183;28;20529;-88
2024/02/16 00:50:15;;;;;;;2.97;2.22;;;14.20;82.90;;;;;;5051920;28;20034;-88
2024/02/16 00:52:41;;;;;;;2.67;2.05;;;14.20;82.90;;;;;;5049334;28;20151;-87
2024/02/16 00:55:07;;;;;;;2.70;2.10;;;14.20;82.90;;;;;;5039383;28;20116;-81
2024/02/16 00:57:34;;;;;;;2.40;1.98;;;14.20;82.90;;;;;;5035552;28;20396;-95
2024/02/16 01:00:00;;;;;;;2.85;2.08;;;14.20;82.90;;;;;;5036992;28;20025;-87
2024/02/16 01:02:26;;;;;;;3.40;2.25;;;14.20;82.90;;;;;;5035477;28;20032;-94
2024/02/16 01:04:52;;;;;;;1.88;1.70;;;14.10;82.80;;;;;;5055149;28;20048;-87
2024/02/16 01:07:18;;;;;;;3.22;2.03;;;14.10;82.90;;;;;;5070075;28;20056;-88
2024/02/16 01:09:44;;;;;;;2.95;2.05;;;14.10;82.90;;;;;;5060345;28;20049;-95
2024/02/16 01:12:10;;;;;;;2.45;1.90;;;14.10;82.90;;;;;;5053007;28;20060;-87
2024/02/16 01:14:35;;;;;;;3.10;2.00;;;14.10;82.90;;;;;;5053461;28;20067;-89
2024/02/16 01:17:01;;;;;;;2.50;2.10;;;14.10;82.90;;;;;;5071047;28;20025;-89
2024/02/16 01:19:27;;;;;;;2.58;2.00;;;14.10;82.90;;;;;;5059656;28;20052;-95
2024/02/16 01:21:57;;;;;;;3.85;2.20;;;14.00;82.80;;;;;;5056990;28;20476;-94
2024/02/16 01:24:23;;;;;;;2.78;2.10;;;14.00;82.80;;;;;;5021010;28;20021;-87
2024/02/16 01:26:49;;;;;;;2.88;2.33;;;14.00;82.80;;;;;;5055397;28;20078;-87
2024/02/16 01:29:15;;;;;;;3.20;2.22;;;14.00;82.80;;;;;;5071721;28;20025;-94
2024/02/16 01:31:40;;;;;;;3.95;2.35;;;14.00;82.80;;;;;;5020254;28;20028;-87
2024/02/16 01:34:07;;;;;;;2.22;2.00;;;14.00;82.90;;;;;;5035882;28;20388;-89
2024/02/16 01:36:33;;;;;;;2.97;2.20;;;14.00;82.80;;;;;;5077634;28;20055;-93
2024/02/16 01:38:58;;;;;;;3.08;2.20;;;14.00;82.80;;;;;;5039058;28;20508;-81
2024/02/16 01:41:24;;;;;;;2.42;2.00;;;14.00;82.90;;;;;;5051064;28;20017;-94
2024/02/16 01:43:57;;;;;;;2.22;1.90;;;14.00;82.90;;;;;;5054842;28;20436;-94
2024/02/16 01:46:23;;;;;;;2.80;2.13;;;14.00;82.80;;;;;;5064040;28;20056;-88
2024/02/16 01:48:50;;;;;;;3.35;2.30;;;13.90;82.80;;;;;;5043522;28;20064;-87
2024/02/16 01:51:16;;;;;;;2.45;1.95;;;13.90;82.80;;;;;;5054261;28;20115;-87
2024/02/16 01:53:42;;;;;;;2.53;2.10;;;13.90;82.80;;;;;;5041519;28;20045;-87
2024/02/16 01:56:08;;;;;;;2.45;2.10;;;13.90;82.90;;;;;;5035007;28;20637;-80
2024/02/16 01:58:37;;;;;;;2.63;2.10;;;13.90;82.90;;;;;;5038416;28;20395;-88
2024/02/16 02:01:04;;;;;;;2.38;2.10;;;13.90;82.90;;;;;;5054834;28;20029;-80
2024/02/16 02:03:29;;;;;;;3.10;2.08;;;13.90;82.90;;;;;;5050981;28;20079;-88
2024/02/16 02:05:56;;;;;;;3.38;2.30;;;13.80;82.80;;;;;;5020747;28;20114;-87
2024/02/16 02:08:21;;;;;;;2.65;2.13;;;13.80;82.80;;;;;;5036606;28;20076;-81
2024/02/16 02:10:50;;;;;;;2.30;1.90;;;13.80;82.80;;;;;;5032679;28;20026;-93
2024/02/16 02:13:16;;;;;;;3.15;2.20;;;13.80;82.90;;;;;;5020090;28;20036;-92
2024/02/16 02:15:42;;;;;;;2.63;2.20;;;13.80;82.80;;;;;;5016783;28;20033;-81
2024/02/16 02:18:08;;;;;;;2.08;1.88;;;13.80;82.90;;;;;;5057573;28;20024;-88
2024/02/16 02:20:37;;;;;;;3.38;2.25;;;13.80;82.90;;;;;;5034697;28;20033;-87
2024/02/16 02:23:03;;;;;;;3.45;2.20;;;13.80;82.90;;;;;;5051022;28;20183;-87
2024/02/16 02:25:29;;;;;;;2.92;2.55;;;13.80;82.90;;;;;;5034552;28;20063;-88
2024/02/16 02:27:55;;;;;;;2.67;2.03;;;13.70;82.80;;;;;;5037844;28;20534;-80
2024/02/16 02:30:22;;;;;;;3.00;2.30;;;13.70;82.80;;;;;;5044390;28;20033;-88
2024/02/16 02:32:49;;;;;;;3.28;2.20;;;13.70;82.80;;;;;;5020335;28;20025;-94
2024/02/16 02:35:17;;;;;;;2.20;2.00;;;13.70;82.90;;;;;;5055140;28;20028;-81
2024/02/16 02:37:44;;;;;;;2.42;2.08;;;13.70;82.90;;;;;;5033992;28;20074;-88
2024/02/16 02:40:10;;;;;;;2.53;2.10;;;13.70;82.90;;;;;;5036045;28;20071;-80
2024/02/16 02:42:36;;;;;;;3.20;2.33;;;13.60;82.80;;;;;;5056116;28;20031;-93
2024/02/16 02:45:02;;;;;;;2.85;2.08;;;13.60;82.80;;;;;;5052181;28;20078;-87
2024/02/16 02:47:28;;;;;;;2.80;2.05;;;13.60;82.80;;;;;;5034670;28;20510;-87
2024/02/16 02:49:55;;;;;;;2.63;2.00;;;13.60;82.80;;;;;;5052562;28;20060;-93
2024/02/16 02:52:21;;;;;;;2.42;2.20;;;13.60;82.80;;;;;;5049164;28;20029;-93
2024/02/16 02:54:47;;;;;;;3.33;2.53;;;13.60;82.90;;;;;;5036008;28;20122;-94
2024/02/16 02:57:13;;;;;;;2.92;2.17;;;13.60;82.90;;;;;;5052704;28;20028;-88
2024/02/16 02:59:39;;;;;;;2.47;2.00;;;13.60;82.80;;;;;;5067203;28;21389;-87
2024/02/16 03:02:05;;;;;;;3.63;2.38;;;13.60;82.80;;;;;;5031757;28;20755;-88
2024/02/16 03:04:31;;;;;;;3.13;2.20;;;13.50;82.80;;;;;;5034105;28;20037;-88
2024/02/16 03:06:57;;;;;;;2.38;2.13;;;13.50;82.80;;;;;;5023881;28;20182;-94
2024/02/16 03:09:24;;;;;;;2.40;1.90;;;13.50;82.80;;;;;;5050962;28;20017;-81
2024/02/16 03:11:51;;;;;;;3.00;2.30;;;13.50;82.80;;;;;;5038847;28;20400;-93
2024/02/16 03:14:17;;;;;;;2.55;1.88;;;13.50;82.80;;;;;;5036107;28;20017;-80
2024/02/16 03:16:43;;;;;;;2.53;2.13;;;13.50;82.80;;;;;;5055976;28;20072;-88
2024/02/16 03:19:09;;;;;;;2.45;2.05;;;13.50;82.80;;;;;;5040577;28;20112;-92
2024/02/16 03:21:35;;;;;;;2.42;2.03;;;13.50;82.80;;;;;;5056338;28;20037;-87
2024/02/16 03:24:03;;;;;;;2.80;2.00;;;13.40;83.40;;;;;;5046048;28;20025;-87
2024/02/16 03:26:30;;;;;;;2.70;1.95;;;13.40;82.80;;;;;;5067300;28;20108;-87
2024/02/16 03:28:56;;;;;;;2.55;2.10;;;13.40;82.80;;;;;;5055221;28;20060;-80
2024/02/16 03:31:23;;;;;;;2.33;2.08;;;13.40;82.80;;;;;;5031665;28;20056;-88
2024/02/16 03:33:54;;;;;;;2.80;2.00;;;13.40;82.80;;;;;;5039972;28;20369;-89
2024/02/16 03:36:20;;;;;;;3.38;2.25;;;13.40;82.80;;;;;;5046478;28;20026;-88
2024/02/16 03:38:51;;;;;;;3.75;2.40;;;13.40;82.80;;;;;;5029403;28;20171;-80
2024/02/16 03:41:23;;;;;;;2.28;2.00;;;13.40;82.80;;;;;;5043097;28;20036;-87
2024/02/16 03:43:49;;;;;;;2.83;2.28;;;13.40;82.80;;;;;;5034108;28;20037;-88
2024/02/16 03:46:15;;;;;;;2.60;2.08;;;13.40;82.80;;;;;;5014471;28;20032;-81
2024/02/16 03:48:41;;;;;;;2.20;2.00;;;13.40;82.90;;;;;;5051897;28;20025;-88
2024/02/16 03:51:07;;;;;;;2.50;2.03;;;13.40;82.80;;;;;;5076678;28;20021;-94
2024/02/16 03:53:34;;;;;;;2.40;2.10;;;13.40;82.80;;;;;;5032370;28;20040;-81
2024/02/16 03:56:00;;;;;;;2.92;2.20;;;13.30;82.80;;;;;;5039295;28;20025;-80
2024/02/16 03:58:26;;;;;;;2.10;1.90;;;13.30;82.80;;;;;;5038304;28;20025;-80
2024/02/16 04:00:53;;;;;;;3.15;2.10;;;13.30;82.80;;;;;;5044140;28;20044;-93
2024/02/16 04:03:19;;;;;;;2.28;2.05;;;13.30;82.80;;;;;;5036288;28;20087;-89
2024/02/16 04:05:45;;;;;;;2.20;2.00;;;13.30;82.80;;;;;;5032260;28;20041;-89
2024/02/16 04:08:11;;;;;;;2.58;2.10;;;13.30;82.80;;;;;;5035121;28;20034;-87
2024/02/16 04:10:36;;;;;;;2.20;1.92;;;13.30;82.80;;;;;;5037044;28;20382;-87
2024/02/16 04:13:02;;;;;;;2.47;2.15;;;13.30;82.80;;;;;;5052944;28;20091;-87
2024/02/16 04:15:38;;;;;;;3.10;2.30;;;13.20;83.20;;;;;;5079076;28;20052;-93
2024/02/16 04:18:07;;;;;;;2.10;1.90;;;13.30;82.80;;;;;;5024737;28;20141;-87
2024/02/16 04:20:33;;;;;;;3.17;2.30;;;13.30;82.80;;;;;;5048670;28;20029;-89
2024/02/16 04:23:00;;;;;;;2.25;1.90;;;13.30;82.90;;;;;;5054797;28;20032;-89
2024/02/16 04:25:25;;;;;;;2.40;2.03;;;13.20;82.80;;;;;;5040240;28;20044;-89
2024/02/16 04:27:51;;;;;;;4.30;2.35;;;13.20;82.90;;;;;;5063562;28;20033;-89
2024/02/16 04:30:17;;;;;;;3.08;2.00;;;13.20;82.90;;;;;;5052750;28;20029;-95
2024/02/16 04:32:43;;;;;;;4.18;2.05;;;13.20;82.90;;;;;;5036794;28;20029;-89
2024/02/16 04:35:14;;;;;;;3.25;2.40;;;13.20;82.90;;;;;;5036657;28;20158;-87
2024/02/16 04:37:39;;;;;;;2.80;2.10;;;13.20;82.90;;;;;;5057836;28;20110;-87
2024/02/16 04:40:06;;;;;;;2.92;2.10;;;13.20;82.90;;;;;;5053554;28;20068;-89
2024/02/16 04:42:32;;;;;;;2.30;2.10;;;13.20;82.90;;;;;;5040306;28;20028;-81
2024/02/16 04:44:58;;;;;;;2.40;1.98;;;13.20;82.90;;;;;;5054511;28;20028;-81
2024/02/16 04:47:25;;;;;;;3.05;2.33;;;13.10;82.80;;;;;;5036280;28;20029;-88
2024/02/16 04:49:52;;;;;;;3.10;2.42;;;13.20;82.90;;;;;;5027562;28;20503;-81
2024/02/16 04:52:20;;;;;;;2.63;2.10;;;13.20;82.90;;;;;;5054305;28;20029;-87
2024/02/16 04:54:52;;;;;;;2.38;2.13;;;13.20;82.80;;;;;;5041925;28;20404;-81
2024/02/16 04:57:17;;;;;;;2.75;2.13;;;13.20;82.80;;;;;;5035955;28;20109;-93
2024/02/16 04:59:43;;;;;;;2.58;2.10;;;13.20;82.90;;;;;;5040492;28;20067;-81
2024/02/16 05:02:10;;;;;;;3.03;2.17;;;13.10;82.80;;;;;;5054965;28;20055;-94
2024/02/16 05:04:35;;;;;;;3.40;2.42;;;13.10;82.80;;;;;;5051446;28;20037;-81
2024/02/16 05:07:01;;;;;;;2.75;2.20;;;13.10;82.80;;;;;;5052119;28;20103;-81
2024/02/16 05:09:27;;;;;;;2.45;2.10;;;13.10;82.80;;;;;;5048558;28;20431;-87
2024/02/16 05:11:53;;;;;;;4.68;2.60;;;13.10;82.80;;;;;;5035544;28;20090;-81
2024/02/16 05:14:19;;;;;;;3.30;2.30;;;13.10;83.40;;;;;;5059620;28;20028;-89
2024/02/16 05:16:45;;;;;;;2.83;2.25;;;13.10;82.80;;;;;;5054234;28;20083;-81
2024/02/16 05:19:12;;;;;;;2.28;1.90;;;13.10;82.90;;;;;;5051935;28;20453;-88
2024/02/16 05:21:37;;;;;;;2.55;2.17;;;13.10;82.90;;;;;;5037003;28;20055;-91
2024/02/16 05:24:06;;;;;;;3.10;2.20;;;13.10;82.90;;;;;;5053338;28;20037;-82
2024/02/16 05:26:32;;;;;;;3.72;2.38;;;13.10;82.80;;;;;;5041801;28;20546;-81
2024/02/16 05:28:58;;;;;;;4.63;2.70;;;13.10;82.90;;;;;;5049676;28;20448;-80
2024/02/16 05:31:23;;;;;;;3.40;2.50;;;13.10;82.90;;;;;;5052009;28;20074;-93
2024/02/16 05:33:51;;;;;;;3.63;2.40;;;13.10;82.90;;;;;;5061257;28;20028;-87
2024/02/16 05:36:21;;;;;;;3.20;2.40;;;13.00;82.90;;;;;;5035721;28;20037;-86
2024/02/16 05:38:47;;;;;;;4.18;2.60;;;13.10;82.90;;;;;;5048767;28;20037;-82
2024/02/16 05:41:13;;;;;;;3.05;2.35;;;13.00;82.80;;;;;;5039863;28;20025;-81
2024/02/16 05:43:43;;;;;;;3.20;2.30;;;13.10;82.90;;;;;;5042670;28;20036;-88
2024/02/16 05:46:15;;;;;;;4.32;2.30;;;13.10;82.90;;;;;;5044373;28;20027;-88
2024/02/16 05:48:42;;;;;;;2.80;2.22;;;13.10;82.90;;;;;;5036744;28;20039;-88
2024/02/16 05:51:12;;;;;;;3.47;2.60;;;13.10;82.90;;;;;;5062116;28;20111;-88
2024/02/16 05:53:38;;;;;;;3.10;2.33;;;13.10;82.90;;;;;;5043158;28;20037;-88
2024/02/16 05:56:10;;;;;;;3.70;2.50;;;13.10;82.90;;;;;;5049878;28;20083;-94
2024/02/16 05:58:37;;;;;;;4.13;2.42;;;13.10;82.90;;;;;;5035863;28;20077;-82
2024/02/16 06:01:02;;;;;;;4.00;2.50;;;13.10;82.90;;;;;;5030477;28;20040;-83
2024/02/16 06:03:28;;;;;;;2.53;2.20;;;13.10;82.90;;;;;;5065109;28;20500;-87
2024/02/16 06:05:54;;;;;;;2.90;2.40;;;13.10;82.90;;;;;;5028061;28;20130;-82
2024/02/16 06:08:20;;;;;;;3.22;2.40;;;13.10;82.90;;;;;;5037683;28;20017;-84
2024/02/16 06:10:51;;;;;;;4.55;2.60;;;13.00;82.80;;;;;;5037831;28;20037;-84
2024/02/16 06:13:21;;;;;;;3.03;2.40;;;13.10;82.90;;;;;;5032768;28;20488;-86
2024/02/16 06:15:47;;;;;;;3.22;2.47;;;13.10;82.90;;;;;;5037818;28;20473;-88
2024/02/16 06:18:13;;;;;;;3.78;2.58;;;13.10;82.90;;;;;;5037863;28;20481;-82
2024/02/16 06:20:38;;;;;;;3.35;2.65;;;13.10;82.90;;;;;;5063489;28;20392;-89
2024/02/16 06:23:04;;;;;;;4.05;2.70;;;13.10;82.90;;;;;;5052362;28;20083;-95
2024/02/16 06:25:30;;;;;;;2.75;2.38;;;13.10;82.90;;;;;;5033007;28;20024;-81
2024/02/16 06:27:56;;;;;;;3.55;2.50;;;13.10;82.90;;;;;;5066383;28;20063;-90
2024/02/16 06:30:22;;;;;;;3.35;2.40;;;13.10;82.90;;;;;;5071429;28;20075;-90
2024/02/16 06:32:48;;;;;;;3.45;2.50;;;13.10;82.90;;;;;;5055701;28;20029;-88
2024/02/16 06:35:14;;;;;;;3.70;2.45;;;13.10;82.90;;;;;;5035218;28;20369;-89
2024/02/16 06:37:40;;;;;;;3.75;2.50;;;13.10;82.90;;;;;;5036509;28;20094;-89
2024/02/16 06:40:13;;;;;;;4.13;2.80;;;13.10;82.90;;;;;;5051976;28;20020;-87
2024/02/16 06:42:39;;;;;;;4.63;2.78;;;13.10;83.00;;;;;;5033962;28;20032;-81
2024/02/16 06:45:05;;;;;;;3.10;2.50;;;13.10;82.90;;;;;;5037771;28;20029;-82
2024/02/16 06:47:32;;;;;;;3.65;2.65;;;13.10;83.00;;;;;;5042065;28;20496;-93
2024/02/16 06:49:58;;;;;;;4.35;2.42;;;13.10;83.00;;;;;;5035761;28;20025;-95
2024/02/16 06:52:23;;;;;;;4.28;2.70;;;13.10;83.00;;;;;;5044650;28;20022;-92
2024/02/16 06:54:49;;;;;;;4.00;2.85;;;13.10;83.00;;;;;;5052548;28;20100;-93
2024/02/16 06:57:15;;;;;;;3.55;2.83;;;13.10;83.00;;;;;;5035406;28;20052;-86
2024/02/16 06:59:41;;;;;;;3.50;2.88;;;13.10;83.00;;;;;;5019989;28;20029;-94
2024/02/16 07:02:07;;;;;;;4.07;2.90;;;13.10;83.00;;;;;;5032198;28;20032;-82
2024/02/16 07:04:33;;;;;;;4.05;2.60;;;13.10;83.00;;;;;;5037097;28;20031;-86
2024/02/16 07:06:59;;;;;;;3.67;2.65;;;13.10;82.90;;;;;;5050673;28;20043;-95
2024/02/16 07:09:25;;;;;;;3.75;2.75;;;13.20;83.00;;;;;;5062425;28;20021;-86
2024/02/16 07:11:51;;;;;;;3.28;2.50;;;13.20;83.00;;;;;;5051757;28;20600;-93
2024/02/16 07:14:17;;;;;;;5.03;2.83;;;13.20;83.00;;;;;;5034748;28;20029;-93
2024/02/16 07:16:43;;;;;;;4.60;2.88;;;13.10;83.00;;;;;;5051377;28;20443;-92
2024/02/16 07:19:09;;;;;;;3.80;2.63;;;13.20;83.00;;;;;;5057735;28;20112;-95
2024/02/16 07:21:35;;;;;;;5.00;3.05;;;13.20;83.00;;;;;;5050476;28;20021;-93
2024/02/16 07:24:02;;;;;;;3.78;2.80;;;13.20;83.00;;;;;;5034434;28;20049;-81
2024/02/16 07:26:29;;;;;;;4.00;2.97;;;13.20;83.00;;;;;;5034572;28;20435;-81
2024/02/16 07:28:55;;;;;;;4.45;3.17;;;13.20;83.00;;;;;;5043401;28;20048;-86
2024/02/16 07:31:21;;;;;;;3.90;2.90;;;13.20;83.00;;;;;;5038825;28;20112;-94
2024/02/16 07:33:47;;;;;;;4.70;3.10;;;13.20;83.00;;;;;;5055149;28;20088;-87
2024/02/16 07:36:13;;;;;;;4.10;2.80;;;13.20;83.00;;;;;;5038635;28;20024;-86
2024/02/16 07:38:39;;;;;;;5.18;3.00;;;13.20;83.00;;;;;;5035797;28;20056;-94
2024/02/16 07:41:07;;;;;;;4.38;3.00;;;13.20;83.00;;;;;;5038372;28;20064;-87
2024/02/16 07:43:33;;;;;;;5.43;3.20;;;13.20;83.00;;;;;;5055129;28;20029;-93
2024/02/16 07:45:58;;;;;;;4.65;3.20;;;13.20;83.00;;;;;;5054162;28;20044;-81
2024/02/16 07:48:24;;;;;;;4.50;3.05;;;13.30;83.10;;;;;;5033647;28;20014;-93
2024/02/16 07:50:50;;;;;;;4.00;3.10;;;13.30;83.10;;;;;;5039590;28;20059;-94
2024/02/16 07:53:16;;;;;;;5.25;3.10;;;13.30;83.10;;;;;;5039091;28;20032;-86
2024/02/16 07:55:42;;;;;;;4.57;3.00;;;13.30;83.10;;;;;;5041482;28;20025;-87
2024/02/16 07:58:09;;;;;;;4.88;3.22;;;13.30;83.10;;;;;;5055762;28;20033;-86
2024/02/16 08:00:36;;;;;;;5.43;3.20;;;13.30;83.10;;;;;;5055928;28;20063;-81
2024/02/16 08:03:02;;;;;;;4.97;2.97;;;13.40;83.20;;;;;;5055148;28;20032;-81
2024/02/16 08:05:28;;;;;;;5.30;3.22;;;13.40;83.20;;;;;;5051320;28;20025;-88
2024/02/16 08:07:54;;;;;;;4.78;3.20;;;13.40;83.10;;;;;;5037620;28;20472;-86
2024/02/16 08:10:24;;;;;;;4.85;3.40;;;13.40;83.10;;;;;;5022557;28;20048;-87
2024/02/16 08:12:50;;;;;;;4.53;2.80;;;13.40;83.10;;;;;;5033596;28;20064;-84
2024/02/16 08:15:22;;;;;;;4.47;3.30;;;13.40;83.10;;;;;;5051975;28;20049;-90
2024/02/16 08:17:50;;;;;;;5.72;3.50;;;13.40;83.20;;;;;;5035420;28;20025;-94
2024/02/16 08:20:16;;;;;;;4.85;3.25;;;13.40;83.80;;;;;;5020542;28;20025;-84
2024/02/16 08:22:42;;;;;;;4.05;3.22;;;13.40;83.10;;;;;;5028436;28;20029;-93
2024/02/16 08:25:12;;;;;;;4.68;3.22;;;13.40;83.10;;;;;;5070425;28;20072;-96
2024/02/16 08:27:39;;;;;;;6.00;3.15;;;13.40;83.10;;;;;;5036663;28;20108;-92
2024/02/16 08:30:06;;;;;;;4.20;3.13;;;13.50;83.20;;;;;;5039323;28;20021;-82
2024/02/16 08:32:31;;;;;;;4.28;3.05;;;13.50;83.20;;;;;;5068802;28;20038;-82
2024/02/16 08:34:59;;;;;;;4.57;3.20;;;13.50;83.20;;;;;;5070047;28;20024;-93
2024/02/16 08:37:25;;;;;;;5.78;3.30;;;13.50;83.20;;;;;;5013558;28;20033;-92
2024/02/16 08:39:51;;;;;;;3.95;3.10;;;13.50;83.20;;;;;;5037913;28;20074;-91
2024/02/16 08:42:17;;;;;;;5.38;3.40;;;13.50;83.20;;;;;;5068970;28;20028;-87
2024/02/16 08:44:43;;;;;;;5.35;3.33;;;13.60;83.20;;;;;;5074761;28;20033;-96
2024/02/16 08:47:09;;;;;;;4.72;3.50;;;13.60;83.20;;;;;;5054305;28;20105;-91
2024/02/16 08:49:35;;;;;;;4.93;3.22;;;13.60;83.20;;;;;;5023314;28;20025;-88
2024/02/16 08:52:00;;;;;;;4.68;3.50;;;13.60;83.20;;;;;;5062807;28;20086;-91
2024/02/16 08:54:26;;;;;;;4.97;3.10;;;13.70;83.20;;;;;;5037663;28;20028;-90
2024/02/16 08:57:03;;;;;;;5.25;3.25;;;13.60;83.20;;;;;;5057691;28;20112;-82
2024/02/16 08:59:30;;;;;;;5.00;3.38;;;13.70;83.20;;;;;;5036369;28;20095;-83
2024/02/16 09:01:55;;;;;;;5.18;3.45;;;13.70;83.80;;;;;;5064981;28;20048;-82
2024/02/16 09:04:42;;;;;;;5.55;3.13;;;13.70;83.20;;;;;;5022432;28;20053;-96
2024/02/16 09:07:07;;;;;;;5.03;3.45;;;13.70;83.20;;;;;;5007278;28;20130;-95
2024/02/16 09:09:33;;;;;;;4.53;3.00;;;13.80;83.30;;;;;;4992505;28;20050;-96
2024/02/16 09:11:59;;;;;;;5.07;3.53;;;13.80;83.30;;;;;;4964637;28;20532;-87
2024/02/16 09:14:25;;;;;;;4.93;3.47;;;13.80;83.20;;;;;;4993415;28;20033;-89
2024/02/16 09:16:51;;;;;;;5.18;3.58;;;13.80;83.30;;;;;;5007160;28;20054;-93
2024/02/16 09:19:21;;;;;;;4.90;3.30;;;13.80;83.30;;;;;;4965075;28;20030;-82
2024/02/16 09:21:49;;;;;;;4.63;3.33;;;13.80;83.30;;;;;;4963498;28;20030;-87
2024/02/16 09:24:17;;;;;;;4.93;3.30;;;13.90;83.40;;;;;;4961549;28;20542;-94
2024/02/16 09:26:47;;;;;;;5.57;3.58;;;13.90;83.30;;;;;;4957683;28;20074;-87
2024/02/16 09:29:13;;;;;;;5.22;3.30;;;13.90;83.30;;;;;;5007726;28;20029;-87
2024/02/16 09:31:41;;;;;;;4.13;2.95;;;13.90;83.30;;;;;;4993799;28;20044;-95
2024/02/16 09:34:07;;;;;;;4.95;3.38;;;13.90;83.30;;;;;;4980105;28;20022;-88
2024/02/16 09:36:32;;;;;;;4.35;3.33;;;13.90;83.30;;;;;;4991750;28;20471;-94
2024/02/16 09:38:58;;;;;;;5.93;3.60;;;13.90;83.20;;;;;;5016241;28;20145;-91
2024/02/16 09:41:24;;;;;;;5.18;3.20;;;14.00;83.30;;;;;;5017340;28;20022;-87
2024/02/16 09:43:53;;;;;;;4.97;3.30;;;14.00;83.30;;;;;;5038264;28;20048;-82
2024/02/16 09:46:21;;;;;;;4.90;3.40;;;14.00;83.20;;;;;;5032360;28;20367;-81
2024/02/16 09:48:52;;;;;;;5.13;3.60;;;14.00;83.30;;;;;;5039594;28;20037;-94
2024/02/16 09:51:18;;;;;;;5.43;3.72;;;14.10;83.30;;;;;;5034771;28;20492;-91
2024/02/16 09:53:54;;;;;;;4.78;3.40;;;14.10;83.20;;;;;;5032394;28;20034;-87
2024/02/16 09:56:21;;;;;;;5.07;3.33;;;14.10;83.30;;;;;;4992362;28;20033;-92
2024/02/16 09:58:47;;;;;;;5.25;3.55;;;14.10;83.20;;;;;;5040122;28;20126;-93
2024/02/16 10:01:20;;;;;;;4.90;3.67;;;14.10;83.20;;;;;;5036411;28;20021;-82
2024/02/16 10:03:48;;;;;;;5.30;3.42;;;14.20;83.30;;;;;;5015615;28;20403;-92
2024/02/16 10:06:15;;;;;;;4.43;3.47;;;14.20;83.30;;;;;;5039672;28;20036;-86
2024/02/16 10:08:56;;;;;;;4.80;3.33;;;14.20;83.30;;;;;;5042336;28;20469;-88
2024/02/16 10:11:30;;;;;;;5.32;3.80;;;14.20;83.30;;;;;;5008445;28;20033;-92
2024/02/16 10:13:57;;;;;;;5.38;3.72;;;14.20;83.20;;;;;;5024381;28;20029;-82
2024/02/16 10:16:24;;;;;;;4.75;3.55;;;14.30;83.30;;;;;;5036330;28;20058;-87
2024/02/16 10:18:50;;;;;;;6.22;3.60;;;14.30;83.30;;;;;;4999010;28;20045;-88
2024/02/16 10:21:27;;;;;;;5.03;3.67;;;14.30;83.30;;;;;;5008105;28;20029;-92
2024/02/16 10:24:07;;;;;;;5.45;3.90;;;14.30;83.20;;;;;;5032405;28;20029;-95
2024/02/16 10:26:37;;;;;;;5.05;3.67;;;14.40;83.30;;;;;;5028326;28;20030;-94
2024/02/16 10:29:23;;;;;;;6.50;4.05;;;14.40;83.30;;;;;;4996403;28;20129;-94
2024/02/16 10:31:55;;;;;;;6.28;3.72;;;14.40;83.20;;;;;;4983210;28;20077;-82
2024/02/16 10:34:24;;;;;;;5.38;3.75;;;14.40;83.20;;;;;;5009811;28;20042;-94
2024/02/16 10:36:51;;;;;;;5.35;3.63;;;14.40;83.10;;;;;;5011256;28;20041;-92
2024/02/16 10:39:18;;;;;;;6.30;4.03;;;14.40;83.10;;;;;;4981771;28;20049;-86
2024/02/16 10:41:51;;;;;;;4.43;3.38;;;14.50;83.10;;;;;;5004143;28;20046;-91
2024/02/16 10:44:17;;;;;;;4.43;3.42;;;14.50;83.10;;;;;;5000567;28;20030;-82
2024/02/16 10:46:43;;;;;;;5.15;3.67;;;14.50;83.10;;;;;;4980625;28;20117;-94
2024/02/16 10:49:09;;;;;;;6.22;3.95;;;14.50;83.00;;;;;;4991490;28;20508;-82
2024/02/16 10:51:38;;;;;;;4.60;3.63;;;14.50;83.00;;;;;;4981395;28;20525;-84
2024/02/16 10:54:06;;;;;;;5.65;3.80;;;14.50;83.00;;;;;;4986512;28;20050;-87
2024/02/16 10:56:40;;;;;;;5.50;3.58;;;14.60;83.00;;;;;;4980262;28;20086;-86
2024/02/16 10:59:10;;;;;;;6.78;3.67;;;14.60;83.00;;;;;;4972156;28;20130;-87
2024/02/16 11:01:41;;;;;;;5.63;3.92;;;14.60;83.00;;;;;;4989178;28;20086;-82
2024/02/16 11:04:09;;;;;;;5.43;3.60;;;14.60;82.90;;;;;;5008532;28;20491;-92
2024/02/16 11:06:59;;;;;;;5.45;3.83;;;14.60;83.60;;;;;;4984496;28;20073;-83
2024/02/16 11:09:35;;;;;;;5.20;3.80;;;14.70;82.90;;;;;;5043241;28;20036;-86
2024/02/16 11:12:04;;;;;;;5.18;4.10;;;14.70;82.90;;;;;;5032720;28;20033;-94
2024/02/16 11:14:37;;;;;;;8.73;3.72;;;14.70;82.90;;;;;;5055319;28;20060;-87
2024/02/16 11:17:14;;;;;;;5.28;4.07;;;14.70;82.90;;;;;;5014589;28;20029;-82
2024/02/16 11:19:44;;;;;;;5.53;3.65;;;14.70;82.90;;;;;;5015759;28;20120;-91
2024/02/16 11:22:11;;;;;;;5.80;4.05;;;14.70;82.90;;;;;;5016747;28;20017;-87
2024/02/16 11:24:42;;;;;;;5.10;3.70;;;14.80;82.90;;;;;;5043494;28;20033;-87
2024/02/16 11:27:09;;;;;;;5.47;4.20;;;14.80;82.90;;;;;;5014867;28;20044;-91
2024/02/16 11:29:38;;;;;;;4.85;3.53;;;14.80;82.90;;;;;;5050935;28;20029;-82
2024/02/16 11:32:05;;;;;;;4.95;4.00;;;14.80;82.90;;;;;;5019061;28;20026;-86
2024/02/16 11:34:32;;;;;;;5.65;3.92;;;14.80;82.80;;;;;;5040508;28;20469;-87
2024/02/16 11:36:59;;;;;;;5.60;4.10;;;14.80;82.80;;;;;;5026623;28;20060;-87
2024/02/16 11:39:26;;;;;;;5.25;3.97;;;14.80;82.80;;;;;;5003504;28;20646;-82
2024/02/16 11:42:06;;;;;;;6.32;4.38;;;14.90;82.80;;;;;;5017492;28;20030;-87
2024/02/16 11:44:36;;;;;;;4.90;3.72;;;14.90;82.80;;;;;;5008301;28;20026;-89
2024/02/16 11:47:03;;;;;;;6.13;4.15;;;14.80;82.70;;;;;;5017107;28;20052;-83
2024/02/16 11:49:29;;;;;;;6.07;4.13;;;14.80;82.70;;;;;;5039569;28;20587;-95
2024/02/16 11:51:57;;;;;;;5.47;3.90;;;14.90;82.70;;;;;;5020157;28;20032;-95
2024/02/16 11:54:23;;;;;;;5.43;4.22;;;14.90;82.70;;;;;;5036899;28;20021;-87
2024/02/16 11:56:51;;;;;;;4.80;3.88;;;14.90;82.70;;;;;;5040247;28;20022;-89
2024/02/16 11:59:21;;;;;;;5.72;4.05;;;14.90;82.70;;;;;;5031318;28;20053;-85
2024/02/16 12:01:59;;;;;;;6.05;4.07;;;14.90;82.70;;;;;;5044820;28;20034;-88
2024/02/16 12:04:27;;;;;;;5.15;4.03;;;15.00;82.70;;;;;;5014390;28;20049;-86
2024/02/16 12:06:55;;;;;;;6.93;4.25;;;14.90;82.60;;;;;;5014586;28;20579;-82
2024/02/16 12:09:24;;;;;;;6.70;4.53;;;14.90;82.60;;;;;;5019409;28;20113;-90
2024/02/16 12:11:53;;;;;;;5.75;4.53;;;14.90;82.60;;;;;;5044806;28;20041;-94
2024/02/16 12:14:22;;;;;;;5.47;4.00;;;14.90;82.60;;;;;;5034579;28;20025;-95
2024/02/16 12:16:55;;;;;;;5.43;4.53;;;14.90;82.60;;;;;;5054628;28;20063;-87
2024/02/16 12:19:22;;;;;;;6.10;4.70;;;15.00;82.60;;;;;;5035783;28;20362;-94
2024/02/16 12:21:58;;;;;;;5.63;4.68;;;15.00;82.60;;;;;;5019288;28;20028;-83
2024/02/16 12:24:25;;;;;;;5.25;4.28;;;15.00;82.60;;;;;;5053765;28;20021;-86
2024/02/16 12:26:50;;;;;;;5.85;4.85;;;15.00;82.60;;;;;;5039570;28;20036;-83
2024/02/16 12:29:17;;;;;;;6.38;4.75;;;15.00;82.60;;;;;;5036840;28;20025;-90
2024/02/16 12:31:44;;;;;;;5.10;4.30;;;15.00;82.50;;;;;;5037452;28;20166;-90
2024/02/16 12:34:11;;;;;;;6.10;4.53;;;15.00;82.50;;;;;;5021321;28;20133;-91
2024/02/16 12:36:39;;;;;;;5.75;4.53;;;15.00;82.50;;;;;;5048520;28;20025;-82
2024/02/16 12:39:11;;;;;;;5.28;4.38;;;15.00;82.50;;;;;;5049538;28;20039;-82
2024/02/16 12:41:38;;;;;;;5.78;4.80;;;15.00;82.40;;;;;;5040195;28;20024;-82
2024/02/16 12:44:07;;;;;;;6.43;4.97;;;15.00;82.40;;;;;;5029891;28;20029;-96
2024/02/16 12:46:33;;;;;;;5.88;4.75;;;15.00;82.40;;;;;;5062884;28;20036;-96
2024/02/16 12:48:59;;;;;;;5.25;4.40;;;15.00;82.40;;;;;;5035797;28;20017;-82